Main page
METAR-TAF:

METAR-TAF

Airports :

Beaver County Airport

Beaver Falls, Pennsylvania, United States

latitude: 40-46N, longitude: 080-24W, elevation: 1253 ft

Current weather observation

The report was made 25 minutes ago, at 21:55 UTC
Wind 9 mph from the North/Northwest with gusts up to 21 mph
Temperature 52°F
Humidity 35%
Pressure 29.91 in. Hg
Visibility: 10 miles
Clear sky

METAR: KBVI 012155Z AUTO 34008G18KT 10SM CLR 11/M04 A2991 RMK AO2 T01061043

Time: 18:20 (22:20 UTC)

Forecast

The report was made 1 hour and 17 minutes ago, at 21:03 UTC
Forecast valid from 01 at 21 UTC to 02 at 18 UTC
Wind 14 mph from the North/Northwest with gusts up to 23 mph
Visibility: 6 miles
Scattered clouds at a height of 5000 ft
From 02 at 0000 UTC
Wind 6 mph from the North/Northwest
Visibility: 6 miles
Clear sky

TAF: KBVI 012103Z 0121/0218 33012G20KT P6SM SCT050 FM020000 33005KT P6SM SKC

Weather observations and forecasts of more than 4000 airports (METAR and TAF reports).

The available stations are represented by yellow and red dots on the map.

Hover mouse over dot to see the name of the station.

Then click to see weather observations and forecasts.

To change the map : click on the green buttons with a black cross to zoom in, on the green button with a dash to zoom out, or on the green arrows for adjacent maps.


METAR-TAF: